Doenrade, Netherlands
Current Conditions -  °F | °C
As of 4:50 PM on Tuesday 21 Oct 2014 (Local Time) from ETNG Reporting Station
Rain Showers Rain Showers  
Wind Chill: 52°   Ceiling: 4600
Heat Index: 52°   Visibility: 6mi
Dew Point: 48°   Wind: 18mph
Humidity: 88%   Direction: 280°W
Pressure: 29.59"   Gusts: NA
Location:  50.97°N, 5.91°E
Report Text: ETNG 211450Z 28016KT 9999 -SHRA FEW015CB SCT025 BKN046 11/09 Q1002
Loading
Personal Weather Stations






























Interactive Weather Map
Tropical Storm Tracking
New forecast layout! Learn more

10-Day Weather Forecast

Advertisements
Track Severe Weather on mobile